createdAt,value
2018-11-29T00:00:37.984Z,-1.50
2018-11-29T00:03:08.300Z,-1.50
2018-11-29T00:05:53.239Z,-1.50
2018-11-29T00:08:22.404Z,-1.50
2018-11-29T00:10:51.588Z,-1.50
2018-11-29T00:13:20.752Z,-1.50
2018-11-29T00:15:49.952Z,-1.50
2018-11-29T00:18:19.112Z,-1.60
2018-11-29T00:20:48.328Z,-1.60
2018-11-29T00:23:17.472Z,-1.70
2018-11-29T00:25:47.205Z,-1.70
2018-11-29T00:28:16.433Z,-1.70
2018-11-29T00:30:45.580Z,-1.70
2018-11-29T00:33:14.685Z,-1.70
2018-11-29T00:35:43.842Z,-1.70
2018-11-29T00:38:13.000Z,-1.80
2018-11-29T00:40:42.146Z,-1.90
2018-11-29T00:43:11.366Z,-1.90
2018-11-29T00:45:41.501Z,-1.90
2018-11-29T00:48:10.621Z,-1.90
2018-11-29T00:50:39.808Z,-1.90
2018-11-29T00:53:08.951Z,-1.90
2018-11-29T00:55:38.108Z,-1.90
2018-11-29T00:58:07.256Z,-1.90
2018-11-29T01:00:36.447Z,-1.90
2018-11-29T01:03:05.664Z,-2.00
2018-11-29T01:05:34.804Z,-2.00
2018-11-29T01:08:04.037Z,-2.00
2018-11-29T01:10:33.233Z,-1.90
2018-11-29T01:13:02.385Z,-1.90
2018-11-29T01:15:31.876Z,-1.90
2018-11-29T01:18:01.331Z,-1.80
2018-11-29T01:20:30.503Z,-1.80
2018-11-29T01:22:59.616Z,-1.70
2018-11-29T01:25:28.761Z,-1.80
2018-11-29T01:27:58.680Z,-1.80
2018-11-29T01:30:27.861Z,-1.90
2018-11-29T01:32:57.004Z,-1.80
2018-11-29T01:35:26.180Z,-1.80
2018-11-29T01:37:55.305Z,-1.80
2018-11-29T01:40:24.472Z,-1.80
2018-11-29T01:42:56.704Z,-1.80
2018-11-29T01:45:26.323Z,-1.70
2018-11-29T01:47:55.518Z,-1.70
2018-11-29T01:50:24.753Z,-1.60
2018-11-29T01:52:53.908Z,-1.60
2018-11-29T01:55:23.113Z,-1.60
2018-11-29T01:57:52.609Z,-1.60
2018-11-29T02:00:21.808Z,-1.60
2018-11-29T02:02:52.739Z,-1.60
2018-11-29T02:05:21.920Z,-1.60
2018-11-29T02:07:51.061Z,-1.60
2018-11-29T02:10:25.957Z,-1.60
2018-11-29T02:12:55.676Z,-1.70
2018-11-29T02:15:25.170Z,-1.70
2018-11-29T02:17:54.358Z,-1.80
2018-11-29T02:20:23.547Z,-1.80
2018-11-29T02:22:52.717Z,-1.70
2018-11-29T02:25:21.971Z,-1.70
2018-11-29T02:27:51.127Z,-1.70
2018-11-29T02:30:21.332Z,-1.80
2018-11-29T02:32:50.911Z,-1.80
2018-11-29T02:35:20.117Z,-1.80
2018-11-29T02:37:49.276Z,-1.70
2018-11-29T02:40:18.990Z,-1.70
2018-11-29T02:42:49.208Z,-1.70
2018-11-29T02:45:20.360Z,-1.70
2018-11-29T02:47:49.550Z,-1.70
2018-11-29T02:50:18.749Z,-1.80
2018-11-29T02:52:47.957Z,-1.80
2018-11-29T02:55:17.069Z,-1.90
2018-11-29T02:57:46.257Z,-1.90
2018-11-29T03:00:18.126Z,-1.90
2018-11-29T03:02:47.355Z,-1.80
2018-11-29T03:05:17.296Z,-1.80
2018-11-29T03:07:46.459Z,-1.90
2018-11-29T03:10:20.339Z,-2.00
2018-11-29T03:12:49.553Z,-1.90
2018-11-29T03:15:18.714Z,-1.90
2018-11-29T03:17:47.881Z,-1.90
2018-11-29T03:20:17.016Z,-1.90
2018-11-29T03:22:46.205Z,-1.80
2018-11-29T03:25:16.242Z,-1.80
2018-11-29T03:27:45.635Z,-1.80
2018-11-29T03:30:17.305Z,-1.70
2018-11-29T03:32:46.462Z,-1.60
2018-11-29T03:35:15.714Z,-1.60
2018-11-29T03:37:44.903Z,-1.60
2018-11-29T03:40:15.064Z,-1.50
2018-11-29T03:42:44.846Z,-1.60
2018-11-29T03:45:14.992Z,-1.60
2018-11-29T03:47:44.319Z,-1.70
2018-11-29T03:50:14.667Z,-1.80
2018-11-29T03:52:44.878Z,-1.80
2018-11-29T03:55:14.472Z,-1.90
2018-11-29T03:57:43.701Z,-1.90
2018-11-29T04:00:14.092Z,-1.90
2018-11-29T04:02:43.502Z,-1.80
2018-11-29T04:05:12.680Z,-1.90
2018-11-29T04:07:41.847Z,-1.80
2018-11-29T04:10:12.139Z,-1.80
2018-11-29T04:12:41.435Z,-1.80
2018-11-29T04:15:11.732Z,-1.80
2018-11-29T04:17:41.366Z,-1.80
2018-11-29T04:20:14.416Z,-1.80
2018-11-29T04:22:43.621Z,-1.80
2018-11-29T04:25:13.681Z,-1.70
2018-11-29T04:27:42.899Z,-1.70
2018-11-29T04:30:17.145Z,-1.70
2018-11-29T04:32:46.309Z,-1.70
2018-11-29T04:35:15.538Z,-1.70
2018-11-29T04:37:44.671Z,-1.70
2018-11-29T04:40:15.825Z,-1.70
2018-11-29T04:42:45.246Z,-1.70
2018-11-29T04:45:16.269Z,-1.70
2018-11-29T04:47:45.836Z,-1.70
2018-11-29T04:50:15.955Z,-1.70
2018-11-29T04:52:45.246Z,-1.70
2018-11-29T04:55:14.440Z,-1.70
2018-11-29T04:57:43.720Z,-1.70
2018-11-29T05:00:15.834Z,-1.70
2018-11-29T05:02:45.479Z,-1.60
2018-11-29T05:05:14.976Z,-1.60
2018-11-29T05:07:44.142Z,-1.60
2018-11-29T05:10:16.623Z,-1.60
2018-11-29T05:12:46.228Z,-1.60
2018-11-29T05:15:15.451Z,-1.60
2018-11-29T05:17:44.645Z,-1.60
2018-11-29T05:20:13.857Z,-1.70
2018-11-29T05:22:43.026Z,-1.70
2018-11-29T05:25:12.154Z,-1.70
2018-11-29T05:27:41.287Z,-1.70
2018-11-29T05:30:13.903Z,-1.70
2018-11-29T05:32:42.995Z,-1.90
2018-11-29T05:35:12.831Z,-1.90
2018-11-29T05:37:42.315Z,-2.00
2018-11-29T05:40:12.651Z,-2.00
2018-11-29T05:42:41.873Z,-2.00
2018-11-29T05:45:11.678Z,-2.00
2018-11-29T05:47:40.842Z,-2.00
2018-11-29T05:50:11.203Z,-2.00
2018-11-29T05:52:41.816Z,-2.00
2018-11-29T05:55:11.253Z,-2.00
2018-11-29T05:57:40.361Z,-2.00
2018-11-29T06:00:11.597Z,-2.10
2018-11-29T06:02:40.871Z,-2.00
2018-11-29T06:05:11.132Z,-2.00
2018-11-29T06:07:40.243Z,-2.10
2018-11-29T06:10:09.451Z,-2.10
2018-11-29T06:12:38.697Z,-2.20
2018-11-29T06:15:10.108Z,-2.20
2018-11-29T06:17:39.408Z,-2.10
2018-11-29T06:20:11.293Z,-2.10
2018-11-29T06:22:40.465Z,-2.20
2018-11-29T06:25:09.989Z,-2.10
2018-11-29T06:27:39.210Z,-2.20
2018-11-29T06:30:17.641Z,-2.30
2018-11-29T06:32:47.206Z,-2.30
2018-11-29T06:35:16.429Z,-2.30
2018-11-29T06:37:45.549Z,-2.30
2018-11-29T06:40:15.867Z,-2.30
2018-11-29T06:42:45.177Z,-2.40
2018-11-29T06:45:17.217Z,-2.40
2018-11-29T06:47:46.911Z,-2.40
2018-11-29T06:50:16.097Z,-2.40
2018-11-29T06:52:46.293Z,-2.30
2018-11-29T06:55:20.663Z,-2.30
2018-11-29T06:57:50.228Z,-2.30
2018-11-29T07:00:23.921Z,-2.30
2018-11-29T07:02:53.055Z,-2.30
2018-11-29T07:05:22.215Z,-2.30
2018-11-29T07:07:51.423Z,-2.30
2018-11-29T07:10:25.942Z,-2.30
2018-11-29T07:12:55.089Z,-2.30
2018-11-29T07:15:24.247Z,-2.30
2018-11-29T07:17:53.484Z,-2.30
2018-11-29T07:20:22.679Z,-2.30
2018-11-29T07:22:52.667Z,-2.30
2018-11-29T07:25:21.900Z,-2.30
2018-11-29T07:27:51.033Z,-2.30
2018-11-29T07:30:20.253Z,-2.20
2018-11-29T07:32:49.403Z,-2.20
2018-11-29T07:35:18.617Z,-2.20
2018-11-29T07:37:47.832Z,-2.20
2018-11-29T07:40:18.673Z,-2.10
2018-11-29T07:42:49.291Z,-2.10
2018-11-29T07:45:19.468Z,-2.00
2018-11-29T07:47:48.757Z,-2.00
2018-11-29T07:50:19.181Z,-2.00
2018-11-29T07:52:48.450Z,-2.00
2018-11-29T07:55:20.389Z,-2.00
2018-11-29T07:57:50.957Z,-2.10
2018-11-29T08:00:20.235Z,-2.00
2018-11-29T08:02:49.395Z,-1.80
2018-11-29T08:05:18.572Z,-1.80
2018-11-29T08:07:48.478Z,-1.80
2018-11-29T08:10:18.791Z,-1.70
2018-11-29T08:12:48.150Z,-1.60
2018-11-29T08:15:19.733Z,-1.50
2018-11-29T08:17:48.955Z,-1.40
2018-11-29T08:20:19.351Z,-1.30
2018-11-29T08:22:48.441Z,-1.20
2018-11-29T08:25:17.671Z,-1.10
2018-11-29T08:27:47.949Z,-0.90
2018-11-29T08:30:17.217Z,-0.70
2018-11-29T08:32:46.370Z,-0.30
2018-11-29T08:35:16.104Z,0.00
2018-11-29T08:37:46.431Z,0.30
2018-11-29T08:40:17.661Z,1.00
2018-11-29T08:42:46.827Z,1.90
2018-11-29T08:45:16.093Z,2.80
2018-11-29T08:47:45.290Z,3.40
2018-11-29T08:50:15.696Z,4.20
2018-11-29T08:52:45.632Z,4.90
2018-11-29T08:55:16.997Z,5.70
2018-11-29T08:57:46.867Z,6.60
2018-11-29T09:00:17.085Z,7.20
2018-11-29T09:02:46.269Z,7.50
2018-11-29T09:05:15.630Z,7.50
2018-11-29T09:07:45.865Z,7.80
2018-11-29T09:10:19.196Z,7.80
2018-11-29T09:12:48.411Z,7.90
2018-11-29T09:15:17.984Z,7.80
2018-11-29T09:17:47.603Z,7.70
2018-11-29T09:20:19.845Z,7.60
2018-11-29T09:22:49.053Z,7.40
2018-11-29T09:25:20.534Z,7.40
2018-11-29T09:27:50.047Z,7.20
2018-11-29T09:30:20.223Z,7.00
2018-11-29T09:32:50.382Z,7.30
2018-11-29T09:35:19.629Z,7.50
2018-11-29T09:37:48.790Z,7.50
2018-11-29T09:40:18.673Z,7.60
2018-11-29T09:42:47.933Z,7.50
2018-11-29T09:45:21.949Z,7.40
2018-11-29T09:47:54.291Z,7.30
2018-11-29T09:50:24.143Z,7.20
2018-11-29T09:52:53.259Z,7.40
2018-11-29T09:55:22.503Z,7.30
2018-11-29T09:57:51.869Z,7.70
2018-11-29T10:00:27.780Z,7.90
2018-11-29T10:02:56.164Z,8.00
2018-11-29T10:05:25.357Z,8.20
2018-11-29T10:07:54.472Z,8.30
2018-11-29T10:10:23.712Z,8.40
2018-11-29T10:12:52.851Z,8.70
2018-11-29T10:15:22.087Z,8.80
2018-11-29T10:17:51.398Z,8.90
2018-11-29T10:20:20.638Z,9.30
2018-11-29T10:22:49.816Z,9.50
2018-11-29T10:25:19.012Z,9.50
2018-11-29T10:27:49.924Z,9.30
2018-11-29T10:30:23.089Z,9.30
2018-11-29T10:32:52.295Z,9.40
2018-11-29T10:35:21.496Z,9.40
2018-11-29T10:37:50.647Z,9.20
2018-11-29T10:40:19.861Z,9.00
2018-11-29T10:42:49.062Z,8.60
2018-11-29T10:45:19.176Z,8.00
2018-11-29T10:47:52.442Z,7.20
2018-11-29T10:50:19.179Z,6.40
2018-11-29T10:52:48.361Z,5.70
2018-11-29T10:55:19.369Z,5.10
2018-11-29T10:57:48.614Z,4.50
2018-11-29T11:00:27.324Z,4.10
2018-11-29T11:03:03.570Z,3.60
2018-11-29T11:05:32.847Z,3.20
2018-11-29T11:08:07.875Z,2.80
2018-11-29T11:10:31.234Z,2.60
2018-11-29T11:13:00.374Z,2.50
2018-11-29T11:15:29.583Z,2.20
2018-11-29T11:17:58.745Z,2.10
2018-11-29T11:20:27.970Z,1.90
2018-11-29T11:22:57.175Z,1.70
2018-11-29T11:25:26.324Z,1.50
2018-11-29T11:27:55.658Z,1.40
2018-11-29T11:30:24.832Z,1.30
2018-11-29T11:32:53.995Z,1.10
2018-11-29T11:35:23.173Z,1.00
2018-11-29T11:37:52.311Z,0.90
2018-11-29T11:40:21.472Z,1.00
2018-11-29T11:42:51.238Z,0.90
2018-11-29T11:45:20.912Z,0.80
2018-11-29T11:47:50.023Z,0.70
2018-11-29T11:50:20.425Z,0.70
2018-11-29T11:52:50.122Z,0.50
2018-11-29T11:55:19.526Z,0.50
2018-11-29T11:57:49.129Z,0.40
2018-11-29T12:00:28.598Z,0.30
2018-11-29T12:03:09.718Z,0.20
2018-11-29T12:05:38.877Z,0.20
2018-11-29T12:08:08.224Z,0.20
2018-11-29T12:10:38.066Z,0.20
2018-11-29T12:13:08.035Z,0.20
2018-11-29T12:15:38.382Z,0.20
2018-11-29T12:18:09.188Z,0.30
2018-11-29T12:20:38.521Z,0.30
2018-11-29T12:23:08.227Z,0.30
2018-11-29T12:25:37.426Z,0.30
2018-11-29T12:28:06.934Z,0.30
2018-11-29T12:30:41.073Z,0.30
2018-11-29T12:33:10.172Z,0.20
2018-11-29T12:35:39.326Z,0.20
2018-11-29T12:38:08.464Z,0.30
2018-11-29T12:40:37.614Z,0.30
2018-11-29T12:43:07.088Z,0.30
2018-11-29T12:45:36.242Z,0.30
2018-11-29T12:48:05.742Z,0.30
2018-11-29T12:50:38.037Z,0.20
2018-11-29T12:53:08.042Z,0.10
2018-11-29T12:55:42.646Z,0.20
2018-11-29T12:58:11.834Z,0.10
2018-11-29T13:00:41.144Z,0.20
2018-11-29T13:03:11.065Z,0.20
2018-11-29T13:05:40.219Z,0.30
2018-11-29T13:08:09.993Z,0.30
2018-11-29T13:10:39.096Z,0.40
2018-11-29T13:13:08.255Z,0.40
2018-11-29T13:15:37.346Z,0.30
2018-11-29T13:18:08.591Z,0.30
2018-11-29T13:20:37.796Z,0.30
2018-11-29T13:23:07.364Z,0.40
2018-11-29T13:25:36.914Z,0.30
2018-11-29T13:28:06.995Z,0.30
2018-11-29T13:30:37.447Z,0.40
2018-11-29T13:33:08.312Z,0.30
2018-11-29T13:35:37.630Z,0.10
2018-11-29T13:38:14.590Z,0.10
2018-11-29T13:40:46.138Z,0.10
2018-11-29T13:43:15.304Z,0.00
2018-11-29T13:45:45.147Z,0.00
2018-11-29T13:48:14.908Z,-0.10
2018-11-29T13:50:44.164Z,-0.20
2018-11-29T13:53:14.455Z,-0.30
2018-11-29T13:55:42.576Z,-0.30
2018-11-29T13:58:11.777Z,-0.30
2018-11-29T14:00:40.951Z,-0.30
2018-11-29T14:03:13.391Z,-0.30
2018-11-29T14:05:42.547Z,-0.30
2018-11-29T14:08:11.728Z,-0.40
2018-11-29T14:10:42.043Z,-0.50
2018-11-29T14:13:11.384Z,-0.50
2018-11-29T14:15:40.543Z,-0.50
2018-11-29T14:18:09.732Z,-0.40
2018-11-29T14:20:38.925Z,-0.40
2018-11-29T14:23:08.352Z,-0.60
2018-11-29T14:25:37.939Z,-0.60
2018-11-29T14:28:07.857Z,-0.70
2018-11-29T14:30:37.154Z,-0.70
2018-11-29T14:33:07.177Z,-0.70
2018-11-29T14:35:36.348Z,-0.70
2018-11-29T14:38:05.730Z,-0.80
2018-11-29T14:40:35.848Z,-0.80
2018-11-29T14:43:05.809Z,-0.90
2018-11-29T14:45:34.931Z,-1.10
2018-11-29T14:48:04.157Z,-1.10
2018-11-29T14:50:39.889Z,-1.10
2018-11-29T14:53:09.905Z,-1.20
2018-11-29T14:55:39.692Z,-1.20
2018-11-29T14:58:10.075Z,-1.30
2018-11-29T15:00:39.361Z,-1.30
2018-11-29T15:03:16.976Z,-1.20
2018-11-29T15:05:46.639Z,-1.20
2018-11-29T15:08:17.220Z,-1.30
2018-11-29T15:10:46.889Z,-1.30
2018-11-29T15:13:15.994Z,-1.40
2018-11-29T15:15:45.169Z,-1.40
2018-11-29T15:18:14.515Z,-1.40
2018-11-29T15:20:47.144Z,-1.40
2018-11-29T15:23:17.724Z,-1.50
2018-11-29T15:25:46.885Z,-1.50
2018-11-29T15:28:16.131Z,-1.50
2018-11-29T15:30:45.337Z,-1.50
2018-11-29T15:33:14.587Z,-1.60
2018-11-29T15:35:43.787Z,-1.60
2018-11-29T15:38:12.963Z,-1.60
2018-11-29T15:40:42.181Z,-1.60
2018-11-29T15:43:28.094Z,-1.70
2018-11-29T15:46:03.119Z,-1.70
2018-11-29T15:48:32.632Z,-1.70
2018-11-29T15:51:02.104Z,-1.70
2018-11-29T15:53:31.615Z,-1.70
2018-11-29T15:56:01.037Z,-1.70
2018-11-29T15:58:30.498Z,-1.70
2018-11-29T16:01:01.094Z,-1.70
2018-11-29T16:03:30.628Z,-1.80
2018-11-29T16:06:00.128Z,-1.90
2018-11-29T16:08:29.556Z,-1.80
2018-11-29T16:10:59.018Z,-1.90
2018-11-29T16:13:28.488Z,-1.80
2018-11-29T16:15:57.940Z,-1.80
2018-11-29T16:18:27.660Z,-1.80
2018-11-29T16:20:57.074Z,-1.90
2018-11-29T16:23:26.568Z,-1.90
2018-11-29T16:25:56.089Z,-1.90
2018-11-29T16:28:25.561Z,-1.90
2018-11-29T16:30:57.493Z,-2.00
2018-11-29T16:33:31.533Z,-2.00
2018-11-29T16:36:01.057Z,-2.00
2018-11-29T16:38:30.521Z,-2.00
2018-11-29T16:40:59.965Z,-2.10
2018-11-29T16:43:29.847Z,-2.10
2018-11-29T16:45:59.315Z,-2.00
2018-11-29T16:48:28.808Z,-2.00
2018-11-29T16:50:58.255Z,-2.00
2018-11-29T16:53:27.728Z,-2.00
2018-11-29T16:55:57.260Z,-2.00
2018-11-29T16:58:30.165Z,-1.90
2018-11-29T17:01:00.235Z,-2.00
2018-11-29T17:03:29.808Z,-2.00
2018-11-29T17:05:59.380Z,-2.10
2018-11-29T17:08:28.888Z,-2.00
2018-11-29T17:10:58.423Z,-2.10
2018-11-29T17:13:27.936Z,-2.10
2018-11-29T17:15:57.394Z,-2.10
2018-11-29T17:18:26.910Z,-2.10
2018-11-29T17:20:56.379Z,-2.10
2018-11-29T17:23:25.787Z,-2.10
2018-11-29T17:25:55.367Z,-2.10
2018-11-29T17:28:24.903Z,-2.10
2018-11-29T17:30:54.411Z,-2.20
2018-11-29T17:33:23.879Z,-2.20
2018-11-29T17:35:53.343Z,-2.20
2018-11-29T17:38:22.821Z,-2.20
2018-11-29T17:40:52.259Z,-2.20
2018-11-29T17:43:21.688Z,-2.20
2018-11-29T17:45:51.067Z,-2.30
2018-11-29T17:48:20.524Z,-2.30
2018-11-29T17:50:49.947Z,-2.40
2018-11-29T17:53:19.431Z,-2.30
2018-11-29T17:55:48.893Z,-2.30
2018-11-29T17:58:18.451Z,-2.30
2018-11-29T18:00:49.829Z,-2.30
2018-11-29T18:03:20.763Z,-2.40
2018-11-29T18:05:50.302Z,-2.50
2018-11-29T18:08:19.811Z,-2.50
2018-11-29T18:10:51.307Z,-2.50
2018-11-29T18:13:23.611Z,-2.50
2018-11-29T18:15:53.203Z,-2.50
2018-11-29T18:18:22.682Z,-2.50
2018-11-29T18:20:52.109Z,-2.50
2018-11-29T18:23:21.553Z,-2.50
2018-11-29T18:25:51.063Z,-2.50
2018-11-29T18:28:20.547Z,-2.60
2018-11-29T18:30:49.959Z,-2.60
2018-11-29T18:33:20.563Z,-2.60
2018-11-29T18:35:50.033Z,-2.60
2018-11-29T18:38:19.531Z,-2.60
2018-11-29T18:40:49.001Z,-2.70
2018-11-29T18:43:18.494Z,-2.70
2018-11-29T18:45:48.107Z,-2.70
2018-11-29T18:48:17.577Z,-2.80
2018-11-29T18:50:47.082Z,-2.70
2018-11-29T18:53:16.610Z,-2.70
2018-11-29T18:55:46.076Z,-2.70
2018-11-29T18:58:15.932Z,-2.70
2018-11-29T19:00:45.459Z,-2.70
2018-11-29T19:03:14.898Z,-2.80
2018-11-29T19:05:44.415Z,-2.80
2018-11-29T19:08:13.935Z,-2.80
2018-11-29T19:10:43.451Z,-2.90
2018-11-29T19:13:13.863Z,-2.90
2018-11-29T19:15:43.415Z,-2.90
2018-11-29T19:18:13.172Z,-3.00
2018-11-29T19:20:42.610Z,-2.90
2018-11-29T19:23:12.049Z,-2.90
2018-11-29T19:25:41.527Z,-2.90
2018-11-29T19:28:11.057Z,-2.90
2018-11-29T19:30:40.564Z,-3.00
2018-11-29T19:33:17.278Z,-2.90
2018-11-29T19:35:43.110Z,-2.90
2018-11-29T19:38:12.549Z,-3.00
2018-11-29T19:40:42.145Z,-3.00
2018-11-29T19:43:12.151Z,-3.00
2018-11-29T19:45:42.692Z,-2.90
2018-11-29T19:48:12.403Z,-3.00
2018-11-29T19:50:42.009Z,-3.00
2018-11-29T19:53:17.556Z,-3.00
2018-11-29T19:55:47.595Z,-3.00
2018-11-29T19:58:17.082Z,-3.10
2018-11-29T20:00:46.642Z,-3.10
2018-11-29T20:03:15.976Z,-3.10
2018-11-29T20:05:45.492Z,-3.10
2018-11-29T20:08:15.050Z,-3.10
2018-11-29T20:10:44.575Z,-3.20
2018-11-29T20:13:15.001Z,-3.20
2018-11-29T20:15:46.682Z,-3.30
2018-11-29T20:18:16.125Z,-3.20
2018-11-29T20:20:45.697Z,-3.20
2018-11-29T20:23:15.547Z,-3.20
2018-11-29T20:25:45.804Z,-3.30
2018-11-29T20:28:15.301Z,-3.20
2018-11-29T20:30:44.846Z,-3.30
2018-11-29T20:33:14.269Z,-3.30
2018-11-29T20:35:43.741Z,-3.30
2018-11-29T20:38:13.237Z,-3.30
2018-11-29T20:40:44.036Z,-3.30
2018-11-29T20:43:13.532Z,-3.40
2018-11-29T20:45:48.322Z,-3.40
2018-11-29T20:48:20.151Z,-3.40
2018-11-29T20:50:50.319Z,-3.40
2018-11-29T20:53:24.907Z,-3.40
2018-11-29T20:55:54.333Z,-3.50
2018-11-29T20:58:23.735Z,-3.50
2018-11-29T21:00:53.184Z,-3.40
2018-11-29T21:03:22.633Z,-3.40
2018-11-29T21:05:52.135Z,-3.50
2018-11-29T21:08:21.626Z,-3.50
2018-11-29T21:10:51.153Z,-3.50
2018-11-29T21:13:20.575Z,-3.50
2018-11-29T21:15:50.021Z,-3.50
2018-11-29T21:18:19.567Z,-3.40
2018-11-29T21:20:49.077Z,-3.40
2018-11-29T21:23:18.647Z,-3.40
2018-11-29T21:25:48.116Z,-3.50
2018-11-29T21:28:17.563Z,-3.50
2018-11-29T21:30:47.106Z,-3.50
2018-11-29T21:33:16.607Z,-3.60
2018-11-29T21:35:46.144Z,-3.70
2018-11-29T21:38:17.738Z,-3.60
2018-11-29T21:40:49.132Z,-3.70
2018-11-29T21:43:18.895Z,-3.70
2018-11-29T21:45:48.385Z,-3.70
2018-11-29T21:48:17.802Z,-3.80
2018-11-29T21:50:47.315Z,-3.70
2018-11-29T21:53:16.800Z,-3.70
2018-11-29T21:55:46.328Z,-3.80
2018-11-29T21:58:15.893Z,-3.70
2018-11-29T22:00:45.366Z,-3.80
2018-11-29T22:03:14.926Z,-3.80
2018-11-29T22:05:44.401Z,-3.70
2018-11-29T22:08:13.857Z,-3.70
2018-11-29T22:10:43.382Z,-3.80
2018-11-29T22:13:12.886Z,-3.90
2018-11-29T22:15:42.350Z,-3.90
2018-11-29T22:18:17.596Z,-3.80
2018-11-29T22:20:47.921Z,-3.90
2018-11-29T22:23:17.320Z,-3.80
2018-11-29T22:25:46.752Z,-3.80
2018-11-29T22:28:16.206Z,-3.80
2018-11-29T22:30:45.676Z,-3.80
2018-11-29T22:33:15.185Z,-3.80
2018-11-29T22:35:44.608Z,-3.90
2018-11-29T22:38:14.044Z,-3.90
2018-11-29T22:40:43.481Z,-3.90
2018-11-29T22:43:12.924Z,-3.90
2018-11-29T22:45:42.408Z,-3.90
2018-11-29T22:48:11.910Z,-3.80
2018-11-29T22:50:41.360Z,-3.90
2018-11-29T22:53:10.757Z,-4.00
2018-11-29T22:55:40.258Z,-4.00
2018-11-29T22:58:09.684Z,-4.00
2018-11-29T23:00:44.269Z,-4.00
2018-11-29T23:03:13.750Z,-4.00
2018-11-29T23:05:43.236Z,-4.10
2018-11-29T23:08:12.606Z,-4.10
2018-11-29T23:10:42.226Z,-4.00
2018-11-29T23:13:11.719Z,-3.90
2018-11-29T23:15:41.256Z,-4.00
2018-11-29T23:18:10.681Z,-4.00
2018-11-29T23:20:40.124Z,-4.00
2018-11-29T23:23:09.524Z,-4.10
2018-11-29T23:25:38.984Z,-4.10
2018-11-29T23:28:08.486Z,-4.10
2018-11-29T23:30:37.942Z,-4.10
2018-11-29T23:33:07.442Z,-4.10
2018-11-29T23:35:37.921Z,-4.00
2018-11-29T23:38:08.089Z,-4.10
2018-11-29T23:40:37.781Z,-4.10
2018-11-29T23:43:07.233Z,-4.10
2018-11-29T23:45:36.697Z,-4.10
2018-11-29T23:48:06.193Z,-4.10
2018-11-29T23:50:35.668Z,-4.20
2018-11-29T23:53:05.174Z,-4.20
2018-11-29T23:55:34.602Z,-4.20
2018-11-29T23:58:04.195Z,-4.20
